This is the latest recevied weather packets stored in our database for station/object DC4XK-10. If no packets are shown the sender has not sent any weather packets the latest 10 day(s).
| Time | Temp. | Humidity | Pressure | Rain* | Wind** | Luminosity | Snow |
|---|---|---|---|---|---|---|---|
| 1777294131 | 11.67° C | 63% | 1023.2 hPa | 0 mm | 1.79 m/s, 285° | - | - |
| 1777293531 | 11.11° C | 62% | 1023.3 hPa | 0 mm | 1.34 m/s, 334° | - | - |
| 1777292931 | 11.67° C | 62% | 1023.6 hPa | 0 mm | 1.34 m/s, 308° | - | - |
| 1777292331 | 11.67° C | 61% | 1023.5 hPa | 0 mm | 1.79 m/s, 329° | - | - |
| 1777291731 | 12.22° C | 58% | 1023.5 hPa | 0 mm | 1.79 m/s, 302° | - | - |
| 1777291132 | 11.67° C | 61% | 1023.5 hPa | 0 mm | 0.89 m/s, 256° | - | - |
| 1777290531 | 11.11° C | 62% | 1023.4 hPa | 0 mm | 1.34 m/s, 36° | - | - |
| 1777289931 | 11.67° C | 62% | 1023.8 hPa | 0 mm | 0.89 m/s, 50° | - | - |
| 1777289333 | 11.11° C | 62% | 1023.5 hPa | 0 mm | 0.89 m/s, 235° | - | - |
| 1777288730 | 11.67° C | 63% | 1023.5 hPa | 0 mm | 0.89 m/s, 280° | - | - |
| 1777288131 | 11.67° C | 60% | 1023.5 hPa | 0 mm | 2.24 m/s, 11° | - | - |
| 1777287534 | 11.11° C | 64% | 1023.7 hPa | 0 mm | 0.45 m/s, 95° | - | - |
| 1777286931 | 11.11° C | 65% | 1023.9 hPa | 0 mm | 1.79 m/s, 336° | - | - |
| 1777286330 | 11.11° C | 62% | 1023.6 hPa | 0 mm | 0 m/s | - | - |
| 1777285731 | 11.11° C | 63% | 1023.7 hPa | 0 mm | 1.79 m/s, 283° | - | - |
| 1777285131 | 10° C | 65% | 1023.8 hPa | 0 mm | 1.79 m/s, 290° | - | - |
| 1777284531 | 10° C | 67% | 1023.7 hPa | 0 mm | 1.79 m/s, 339° | - | - |
| 1777283930 | 9.44° C | 69% | 1023.6 hPa | 0 mm | 1.34 m/s, 197° | - | - |
| 1777283331 | 9.44° C | 69% | 1023.8 hPa | 0 mm | 0.89 m/s, 268° | - | - |
| 1777282731 | 8.89° C | 69% | 1023.7 hPa | 0 mm | 0.89 m/s, 346° | - | - |
| 1777282131 | 8.89° C | 69% | 1023.8 hPa | 0 mm | 0.89 m/s, 333° | - | - |
| 1777281531 | 8.89° C | 69% | 1023.6 hPa | 0 mm | 2.24 m/s, 340° | - | - |
| 1777280932 | 10° C | 66% | 1023.5 hPa | 0 mm | 1.79 m/s, 317° | - | - |
| 1777280331 | 8.89° C | 69% | 1023.6 hPa | 0 mm | 0.89 m/s, 15° | - | - |
| 1777279731 | 8.33° C | 72% | 1023.8 hPa | 0 mm | 1.34 m/s, 238° | - | - |
* Rain latest hour (hover to see other rain measurements)
** Current wind speed in m/s (hover to see current wind gust speed)